Time;durP1;ratioP1;P1;durP2;ratioP2;P2;SDS_P1;SDS_P2;PMS_P1;PMS_P2;Temp;Humidity;BMP_temperature;BMP_pressure;BME280_temperature;BME280_humidity;BME280_pressure;Samples;Min_cycle;Max_cycle;Signal;HPM_P1;HPM_P2
2021/04/21 00:00:20;;;;;;;7.40;4.70;;;;;;;9.50;54.53;97107.09;5094858;28;20031;-74
2021/04/21 00:02:49;;;;;;;5.72;4.07;;;;;;;9.34;54.60;97106.09;5084580;28;20513;-74
2021/04/21 00:05:15;;;;;;;6.10;4.60;;;;;;;9.44;54.68;97102.84;5075393;28;20390;-74
2021/04/21 00:07:41;;;;;;;5.80;4.00;;;;;;;9.40;54.73;97099.94;5069526;28;20023;-74
2021/04/21 00:10:08;;;;;;;7.28;4.53;;;;;;;9.38;54.80;97094.19;5103144;28;20786;-75
2021/04/21 00:12:34;;;;;;;8.38;4.57;;;;;;;9.43;55.06;97099.47;5110755;28;20137;-74
2021/04/21 00:15:00;;;;;;;6.13;4.70;;;;;;;9.41;55.23;97098.94;5087196;28;20403;-75
2021/04/21 00:17:26;;;;;;;6.22;4.50;;;;;;;9.36;54.96;97096.25;5097430;28;20026;-74
2021/04/21 00:19:53;;;;;;;6.15;4.50;;;;;;;9.29;54.83;97093.81;5087666;28;20065;-74
2021/04/21 00:22:19;;;;;;;7.45;5.28;;;;;;;9.32;55.19;97095.13;5093860;28;20073;-74
2021/04/21 00:24:46;;;;;;;7.05;4.93;;;;;;;9.23;55.39;97089.56;5111333;28;20106;-75
2021/04/21 00:27:15;;;;;;;7.60;4.78;;;;;;;9.18;55.72;97089.47;5108227;28;20051;-74
2021/04/21 00:29:41;;;;;;;7.82;5.47;;;;;;;9.25;55.22;97078.94;5094875;28;20070;-74
2021/04/21 00:32:07;;;;;;;6.95;5.18;;;;;;;9.25;55.21;97084.91;5101738;28;20031;-75
2021/04/21 00:34:34;;;;;;;9.85;5.82;;;;;;;9.25;55.14;97081.53;5105120;28;20042;-74
2021/04/21 00:37:01;;;;;;;8.43;5.72;;;;;;;9.31;55.60;97083.19;5094416;28;20137;-74
2021/04/21 00:39:27;;;;;;;7.47;5.03;;;;;;;9.34;55.24;97082.72;5090747;28;20031;-74
2021/04/21 00:42:00;;;;;;;9.88;5.30;;;;;;;9.22;55.12;97085.41;5073968;28;20379;-74
2021/04/21 00:45:03;;;;;;;8.55;5.07;;;;;;;9.08;55.47;97082.34;5082969;28;20085;-75
2021/04/21 00:47:52;;;;;;;7.50;5.30;;;;;;;9.13;54.90;97081.59;5085288;28;20038;-75
2021/04/21 00:50:25;;;;;;;7.38;4.85;;;;;;;8.98;55.29;97080.38;5068989;28;20090;-75
2021/04/21 00:53:06;;;;;;;8.43;5.40;;;;;;;8.94;55.36;97079.25;5081385;28;20038;-75
2021/04/21 00:55:35;;;;;;;7.47;5.43;;;;;;;9.08;55.00;97078.94;5067694;28;20039;-75
2021/04/21 00:58:26;;;;;;;8.02;5.50;;;;;;;8.80;55.83;97083.97;5100860;28;20124;-75
2021/04/21 01:00:55;;;;;;;8.48;5.15;;;;;;;8.97;55.66;97080.59;5071888;27;20101;-75
2021/04/21 01:03:25;;;;;;;7.97;5.40;;;;;;;8.85;56.15;97075.47;5106521;27;20102;-75
2021/04/21 01:05:51;;;;;;;8.32;5.60;;;;;;;9.00;55.82;97077.53;5071170;27;20168;-75
2021/04/21 01:08:31;;;;;;;8.88;6.32;;;;;;;8.85;55.92;97072.88;5106814;27;20031;-75
2021/04/21 01:11:03;;;;;;;10.43;5.60;;;;;;;8.74;55.85;97074.53;5090489;27;20031;-75
2021/04/21 01:13:35;;;;;;;9.15;5.80;;;;;;;8.66;56.07;97074.91;5093508;28;20027;-75
2021/04/21 01:16:01;;;;;;;14.38;7.80;;;;;;;8.80;55.58;97078.75;5086601;28;20404;-75
2021/04/21 01:18:29;;;;;;;9.48;5.82;;;;;;;8.73;55.92;97077.34;5110156;28;20486;-75
2021/04/21 01:21:07;;;;;;;9.63;6.50;;;;;;;8.61;56.20;97073.00;5079966;28;20089;-75
2021/04/21 01:23:54;;;;;;;8.10;5.28;;;;;;;8.29;57.14;97070.06;5093841;28;20456;-75
2021/04/21 01:26:50;;;;;;;10.10;5.85;;;;;;;8.32;56.95;97077.41;5121992;27;20121;-75
2021/04/21 01:29:18;;;;;;;;;;;;;;;8.01;57.81;97071.63;5108136;28;20038;-75
2021/04/21 01:31:45;;;;;;;7.50;5.25;;;;;;;8.35;56.71;97070.97;5077630;27;19914;-75
2021/04/21 01:34:13;;;;;;;8.82;5.75;;;;;;;8.33;57.45;97071.19;5091112;28;20036;-75
2021/04/21 01:36:40;;;;;;;12.32;6.72;;;;;;;8.39;57.43;97072.84;5071462;27;20448;-75
2021/04/21 01:39:07;;;;;;;9.77;6.22;;;;;;;8.46;57.70;97064.19;5094988;27;20037;-75
2021/04/21 01:41:43;;;;;;;10.90;6.55;;;;;;;8.33;57.37;97072.97;5108003;27;20104;-75
2021/04/21 01:44:10;;;;;;;;;;;;;;;7.99;57.96;97073.69;5092926;28;20072;-74
2021/04/21 01:46:47;;;;;;;7.85;5.00;;;;;;;8.25;57.53;97071.56;5072596;28;19908;-74
2021/04/21 01:49:21;;;;;;;11.30;6.38;;;;;;;8.35;57.80;97066.56;5073803;28;20031;-75
2021/04/21 01:51:49;;;;;;;7.80;5.53;;;;;;;8.55;57.44;97070.56;5110427;27;20092;-75
2021/04/21 01:54:16;;;;;;;8.65;6.03;;;;;;;8.49;57.58;97061.91;5093541;27;20101;-75
2021/04/21 01:56:45;;;;;;;9.10;5.63;;;;;;;8.44;57.08;97070.38;5112048;27;20031;-74
2021/04/21 01:59:23;;;;;;;6.85;5.05;;;;;;;8.37;57.36;97063.75;5112839;27;20054;-74
2021/04/21 02:01:52;;;;;;;8.48;5.25;;;;;;;8.65;57.35;97065.53;5109676;27;20074;-75
2021/04/21 02:04:41;;;;;;;10.43;5.65;;;;;;;8.44;56.93;97064.41;5078401;27;20039;-74
2021/04/21 02:07:45;;;;;;;8.55;5.50;;;;;;;8.21;56.82;97063.47;5091383;28;20036;-74
2021/04/21 02:10:33;;;;;;;6.80;5.03;;;;;;;8.16;56.34;97068.56;5109665;28;20070;-75
2021/04/21 02:13:07;;;;;;;7.95;5.18;;;;;;;8.18;56.61;97068.31;5101368;27;20496;-75
2021/04/21 02:16:09;;;;;;;7.68;5.13;;;;;;;8.00;57.42;97077.03;5131130;27;20517;-75
2021/04/21 02:18:52;;;;;;;9.32;5.05;;;;;;;7.97;57.96;97075.72;5130644;27;20027;-75
2021/04/21 02:21:26;;;;;;;10.80;6.35;;;;;;;8.00;58.13;97070.06;5130708;27;20034;-75
2021/04/21 02:24:10;;;;;;;9.00;5.47;;;;;;;7.99;58.23;97068.50;5091964;27;20036;-75
2021/04/21 02:26:44;;;;;;;10.30;6.75;;;;;;;8.00;57.99;97074.44;5080232;27;20038;-74
2021/04/21 02:29:12;;;;;;;10.07;6.05;;;;;;;8.07;57.56;97070.72;5079966;28;20406;-74
2021/04/21 02:31:55;;;;;;;10.82;6.70;;;;;;;7.84;58.70;97068.97;5101710;28;20110;-75
2021/04/21 02:34:43;;;;;;;9.90;6.53;;;;;;;7.94;58.71;97077.97;5098158;28;20044;-74
2021/04/21 02:37:29;;;;;;;10.35;6.68;;;;;;;7.88;58.21;97072.69;5109423;27;20031;-75
2021/04/21 02:40:13;;;;;;;9.43;6.45;;;;;;;8.16;57.91;97070.38;5103260;28;20045;-74
2021/04/21 02:43:07;;;;;;;9.60;5.95;;;;;;;7.92;57.99;97067.03;5126473;27;20031;-74
2021/04/21 02:45:41;;;;;;;9.05;5.95;;;;;;;7.96;58.01;97074.13;5077959;27;20710;-75
2021/04/21 02:48:28;;;;;;;11.50;6.93;;;;;;;8.06;57.35;97066.53;5094017;27;20102;-74
2021/04/21 02:51:20;;;;;;;9.48;7.15;;;;;;;7.91;58.48;97075.84;5084950;28;20143;-75
2021/04/21 02:53:55;;;;;;;10.50;7.00;;;;;;;8.13;57.81;97060.44;5101372;27;20501;-74
2021/04/21 02:56:48;;;;;;;12.68;8.32;;;;;;;8.14;57.95;97064.59;5101721;27;20102;-74
2021/04/21 02:59:36;;;;;;;10.77;7.00;;;;;;;8.18;56.96;97055.34;5124866;27;20035;-74
2021/04/21 03:02:09;;;;;;;11.25;7.28;;;;;;;8.38;55.84;97050.53;5075284;27;20110;-75
2021/04/21 03:05:03;;;;;;;9.23;6.00;;;;;;;8.00;57.21;97056.31;5085532;28;20024;-74
2021/04/21 03:07:40;;;;;;;9.80;6.55;;;;;;;7.92;56.90;97061.84;5086734;27;20122;-75
2021/04/21 03:10:09;;;;;;;9.50;6.90;;;;;;;7.96;57.19;97063.75;5127092;27;20031;-74
2021/04/21 03:12:37;;;;;;;10.98;7.18;;;;;;;7.87;57.69;97065.16;5103394;28;20088;-74
2021/04/21 03:15:06;;;;;;;14.77;9.85;;;;;;;7.80;58.52;97057.50;5124250;27;20027;-74
2021/04/21 03:17:31;;;;;;;15.65;10.02;;;;;;;7.87;58.50;97054.78;5111389;27;20039;-74
2021/04/21 03:20:02;;;;;;;14.07;8.65;;;;;;;7.68;58.86;97056.75;5098936;27;20039;-74
2021/04/21 03:22:30;;;;;;;14.43;9.73;;;;;;;7.74;58.30;97052.44;5087134;27;20027;-75
2021/04/21 03:25:05;;;;;;;11.73;8.38;;;;;;;7.56;59.02;97061.94;5087411;27;20034;-74
2021/04/21 03:27:32;;;;;;;14.10;8.77;;;;;;;7.63;58.76;97057.41;5108147;27;20023;-74
2021/04/21 03:30:00;;;;;;;15.20;9.43;;;;;;;7.55;59.71;97065.53;5092836;28;20039;-74
2021/04/21 03:32:27;;;;;;;13.30;8.70;;;;;;;7.52;58.83;97058.19;5110348;27;20027;-74
2021/04/21 03:34:55;;;;;;;16.83;10.48;;;;;;;7.46;59.51;97049.53;5087423;27;20505;-74
2021/04/21 03:37:37;;;;;;;19.25;12.25;;;;;;;7.24;60.53;97046.75;5110762;27;20027;-74
2021/04/21 03:40:04;;;;;;;20.45;11.75;;;;;;;7.54;59.95;97051.00;5083640;27;20540;-74
2021/04/21 03:42:30;;;;;;;17.52;10.02;;;;;;;7.58;59.45;97041.75;5063529;28;20047;-74
2021/04/21 03:44:55;;;;;;;18.05;11.13;;;;;;;7.73;59.70;97049.06;5110991;28;20366;-74
2021/04/21 03:47:23;;;;;;;17.58;10.98;;;;;;;7.89;58.57;97052.75;5075704;28;20034;-74
2021/04/21 03:49:49;;;;;;;19.13;11.40;;;;;;;7.81;57.91;97046.13;5109044;27;20023;-74
2021/04/21 03:52:16;;;;;;;18.27;10.80;;;;;;;7.74;57.95;97048.03;5093136;28;20028;-74
2021/04/21 03:54:42;;;;;;;16.08;10.43;;;;;;;7.78;58.21;97050.94;5063791;28;20034;-74
2021/04/21 03:57:11;;;;;;;15.77;9.63;;;;;;;7.53;58.38;97043.47;5087698;28;20252;-74
2021/04/21 03:59:36;;;;;;;17.00;10.50;;;;;;;7.55;58.81;97044.03;5092970;28;20058;-74
2021/04/21 04:02:05;;;;;;;17.33;10.57;;;;;;;7.37;59.19;97040.56;5107090;28;20474;-74
2021/04/21 04:04:31;;;;;;;19.85;13.02;;;;;;;7.40;59.41;97042.69;5083558;28;20491;-74
2021/04/21 04:07:08;;;;;;;19.83;12.60;;;;;;;7.14;59.55;97041.34;5102653;28;20114;-75
2021/04/21 04:09:34;;;;;;;19.23;11.43;;;;;;;7.34;59.55;97045.41;5098893;28;20031;-74
2021/04/21 04:12:02;;;;;;;22.10;12.95;;;;;;;7.34;60.15;97048.00;5086400;28;20036;-74
2021/04/21 04:14:30;;;;;;;22.98;13.07;;;;;;;7.27;60.36;97043.69;5086272;28;20027;-74
2021/04/21 04:16:58;;;;;;;21.05;12.10;;;;;;;7.34;60.79;97055.75;5086641;28;20327;-74
2021/04/21 04:19:24;;;;;;;22.58;13.38;;;;;;;7.46;60.41;97051.34;5122401;28;20094;-74
2021/04/21 04:22:04;;;;;;;21.63;12.98;;;;;;;7.24;61.11;97046.75;5088839;28;20028;-74
2021/04/21 04:24:44;;;;;;;23.65;13.98;;;;;;;7.40;61.48;97058.25;5073871;28;20261;-74
2021/04/21 04:27:17;;;;;;;24.42;14.77;;;;;;;7.42;61.16;97057.97;5101912;28;20038;-74
2021/04/21 04:29:43;;;;;;;22.92;13.85;;;;;;;7.68;60.54;97054.91;5092167;27;20043;-75
2021/04/21 04:32:15;;;;;;;24.45;14.35;;;;;;;7.57;61.01;97049.75;5090493;27;20038;-74
2021/04/21 04:34:48;;;;;;;24.95;15.05;;;;;;;7.46;61.62;97059.91;5126048;27;20031;-75
2021/04/21 04:37:16;;;;;;;24.67;15.20;;;;;;;7.66;61.33;97064.72;5107505;27;20042;-75
2021/04/21 04:39:42;;;;;;;22.55;13.32;;;;;;;7.72;61.61;97067.44;5106260;27;20023;-75
2021/04/21 04:42:08;;;;;;;24.27;13.57;;;;;;;7.66;61.15;97059.56;5065636;27;20042;-75
2021/04/21 04:44:43;;;;;;;22.13;12.15;;;;;;;7.59;60.82;97074.44;5097375;27;20113;-74
2021/04/21 04:47:12;;;;;;;22.17;13.13;;;;;;;7.73;60.04;97069.78;5114413;27;20027;-74
2021/04/21 04:49:48;;;;;;;22.70;13.07;;;;;;;7.55;59.87;97069.94;5097353;27;20028;-74
2021/04/21 04:52:13;;;;;;;16.52;10.43;;;;;;;7.76;59.29;97071.13;5096454;27;20162;-74
2021/04/21 04:54:59;;;;;;;18.85;11.35;;;;;;;7.43;60.62;97072.53;5112896;27;20087;-74
2021/04/21 04:57:26;;;;;;;18.85;11.30;;;;;;;7.71;59.88;97071.03;5092457;27;20538;-75
2021/04/21 04:59:52;;;;;;;20.55;11.90;;;;;;;7.79;60.71;97081.03;5089380;27;20103;-75
2021/04/21 05:02:18;;;;;;;19.27;11.18;;;;;;;7.81;60.44;97071.22;5087687;28;20035;-75
2021/04/21 05:04:53;;;;;;;19.65;11.60;;;;;;;7.64;60.33;97087.50;5076363;27;20058;-74
2021/04/21 05:07:24;;;;;;;20.67;13.05;;;;;;;7.75;60.78;97077.34;5113231;27;20083;-74
2021/04/21 05:09:51;;;;;;;20.25;12.73;;;;;;;7.96;60.59;97086.31;5072295;27;20435;-74
2021/04/21 05:12:19;;;;;;;20.30;13.02;;;;;;;8.11;60.57;97085.84;5070048;27;20042;-74
2021/04/21 05:14:46;;;;;;;24.70;13.88;;;;;;;8.16;60.76;97080.75;5079720;27;20434;-74
2021/04/21 05:17:52;;;;;;;17.25;11.88;;;;;;;8.06;61.65;97084.69;5111230;27;20031;-74
2021/04/21 05:20:48;;;;;;;19.38;12.07;;;;;;;8.19;60.71;97098.41;5131257;27;20031;-74
2021/04/21 05:23:19;;;;;;;;;;;;;;;8.09;62.00;97098.22;5112616;27;20084;-74
2021/04/21 05:25:53;;;;;;;16.13;9.65;;;;;;;8.49;59.99;97100.03;5076616;28;19912;-74
2021/04/21 05:28:40;;;;;;;17.80;11.10;;;;;;;8.50;60.25;97094.63;5097901;27;20816;-75
2021/04/21 05:31:33;;;;;;;16.23;10.85;;;;;;;8.64;60.17;97110.69;5095594;27;20035;-75
2021/04/21 05:34:14;;;;;;;16.33;11.05;;;;;;;8.76;59.46;97103.63;5093114;28;20389;-75
2021/04/21 05:37:17;;;;;;;21.35;13.02;;;;;;;8.76;59.63;97106.22;5096653;27;20035;-75
2021/04/21 05:39:42;;;;;;;21.80;14.13;;;;;;;9.17;58.90;97106.88;5112268;27;20462;-74
2021/04/21 05:42:45;;;;;;;21.90;15.23;;;;;;;9.09;59.32;97102.06;5118359;27;20040;-75
2021/04/21 05:45:56;;;;;;;20.35;13.90;;;;;;;9.30;59.52;97102.38;5101834;27;20496;-75
2021/04/21 05:48:46;;;;;;;19.67;13.07;;;;;;;9.75;58.96;97101.47;5120569;27;20020;-75
2021/04/21 05:51:39;;;;;;;18.48;10.63;;;;;;;9.95;57.86;97106.13;5095416;27;20035;-75
2021/04/21 05:54:24;;;;;;;16.02;10.23;;;;;;;10.13;56.86;97108.41;5128198;27;20530;-75
2021/04/21 05:57:11;;;;;;;15.65;10.07;;;;;;;10.42;56.28;97113.47;5095582;27;20389;-75
2021/04/21 06:00:03;;;;;;;13.57;9.20;;;;;;;10.74;54.60;97119.75;5079035;27;20114;-75
2021/04/21 06:02:30;;;;;;;16.67;9.95;;;;;;;11.26;53.03;97108.72;5103278;27;20036;-75
2021/04/21 06:05:07;;;;;;;13.07;8.88;;;;;;;11.35;52.54;97114.25;5106297;27;20035;-75
2021/04/21 06:07:32;;;;;;;13.82;9.50;;;;;;;11.80;51.47;97105.13;5078966;27;20227;-75
2021/04/21 06:09:58;;;;;;;12.20;8.32;;;;;;;11.92;50.98;97102.34;5089537;28;20082;-75
2021/04/21 06:12:24;;;;;;;14.77;8.98;;;;;;;12.14;50.21;97110.00;5111320;27;20351;-75
2021/04/21 06:14:51;;;;;;;12.82;8.77;;;;;;;12.36;50.11;97117.66;5091437;27;20027;-75
2021/04/21 06:17:23;;;;;;;13.93;8.80;;;;;;;12.42;49.71;97116.59;5078222;27;20501;-75
2021/04/21 06:19:49;;;;;;;13.20;9.30;;;;;;;12.86;48.65;97121.41;5089244;27;20023;-75
2021/04/21 06:22:26;;;;;;;12.77;8.60;;;;;;;12.65;48.69;97114.59;5078012;27;20034;-75
2021/04/21 06:25:07;;;;;;;14.80;8.35;;;;;;;12.75;47.77;97112.00;5078156;28;20084;-75
2021/04/21 06:27:34;;;;;;;14.50;8.75;;;;;;;13.18;47.49;97119.56;5084832;27;20031;-77
2021/04/21 06:30:07;;;;;;;15.57;9.25;;;;;;;13.16;47.29;97122.47;5093204;28;20040;-76
2021/04/21 06:32:33;;;;;;;12.93;8.32;;;;;;;13.68;47.17;97121.38;5120389;27;20393;-75
2021/04/21 06:35:09;;;;;;;12.50;9.40;;;;;;;13.53;46.41;97118.78;5071681;28;20040;-76
2021/04/21 06:37:36;;;;;;;11.35;8.40;;;;;;;13.97;46.11;97123.41;5082081;27;20027;-76
2021/04/21 06:40:06;;;;;;;16.60;9.57;;;;;;;14.15;45.95;97126.47;5109996;27;20027;-75
2021/04/21 06:42:31;;;;;;;12.23;9.18;;;;;;;14.55;45.08;97127.34;5105556;27;20062;-75
2021/04/21 06:44:57;;;;;;;19.13;14.93;;;;;;;14.68;44.01;97125.97;5084831;28;20028;-75
2021/04/21 06:47:26;;;;;;;12.52;9.18;;;;;;;14.78;44.29;97131.16;5112214;27;20286;-75
2021/04/21 06:50:04;;;;;;;11.43;7.93;;;;;;;14.76;43.61;97128.81;5081722;28;20486;-76
2021/04/21 06:52:38;;;;;;;10.50;7.75;;;;;;;15.13;42.85;97131.94;5120106;27;20392;-75
2021/04/21 06:55:07;;;;;;;10.82;9.27;;;;;;;15.57;42.16;97135.50;5103226;27;20032;-75
2021/04/21 06:57:33;;;;;;;10.80;7.32;;;;;;;15.81;41.92;97132.94;5088944;27;20032;-75
2021/04/21 07:00:19;;;;;;;8.93;6.53;;;;;;;15.69;40.96;97131.44;5081189;27;20032;-74
2021/04/21 07:02:47;;;;;;;10.13;6.40;;;;;;;16.24;40.53;97136.38;5085380;28;20570;-75
2021/04/21 07:05:36;;;;;;;9.27;6.35;;;;;;;16.21;40.10;97131.72;5074330;27;20353;-75
2021/04/21 07:08:10;;;;;;;9.00;6.18;;;;;;;16.47;39.90;97129.53;5090719;27;20040;-75
2021/04/21 07:10:47;;;;;;;8.02;5.57;;;;;;;16.72;39.66;97132.84;5118707;27;20113;-75
2021/04/21 07:13:25;;;;;;;7.25;5.50;;;;;;;16.53;39.20;97138.13;5087281;27;20062;-75
2021/04/21 07:15:56;;;;;;;7.72;5.68;;;;;;;16.94;37.88;97129.69;5110745;27;20114;-75
2021/04/21 07:18:24;;;;;;;6.28;4.72;;;;;;;17.17;37.89;97137.75;5110795;27;20027;-76
2021/04/21 07:20:53;;;;;;;7.78;5.55;;;;;;;17.30;37.52;97142.28;5110694;27;20092;-75
2021/04/21 07:23:20;;;;;;;7.43;5.53;;;;;;;17.48;37.60;97143.31;5088675;27;20023;-76
2021/04/21 07:25:47;;;;;;;8.00;4.95;;;;;;;17.70;37.28;97137.38;5080497;27;20529;-76
2021/04/21 07:28:14;;;;;;;8.10;5.90;;;;;;;18.02;37.21;97141.03;5080082;28;20479;-75
2021/04/21 07:30:42;;;;;;;6.18;4.50;;;;;;;18.11;36.62;97139.28;5104010;28;20088;-75
2021/04/21 07:33:08;;;;;;;6.43;4.53;;;;;;;18.26;36.20;97140.81;5083308;28;20115;-75
2021/04/21 07:35:34;;;;;;;6.13;5.18;;;;;;;18.74;35.71;97144.06;5094598;28;20032;-75
2021/04/21 07:38:00;;;;;;;6.60;5.03;;;;;;;18.65;35.92;97142.13;5107266;27;20037;-75
2021/04/21 07:40:33;;;;;;;6.55;4.72;;;;;;;18.86;35.18;97142.47;5051304;27;20051;-76
2021/04/21 07:43:11;;;;;;;5.65;4.43;;;;;;;18.55;34.92;97138.94;5082386;28;20114;-76
2021/04/21 07:45:40;;;;;;;6.75;4.78;;;;;;;18.72;35.02;97141.72;5105967;28;20016;-75
2021/04/21 07:48:35;;;;;;;6.97;4.40;;;;;;;18.67;34.21;97145.22;5108333;28;20019;-76
2021/04/21 07:51:16;;;;;;;6.53;4.53;;;;;;;18.98;33.58;97141.94;5070788;27;20028;-76
2021/04/21 07:54:17;;;;;;;6.78;5.05;;;;;;;19.03;33.29;97151.59;5101515;28;20031;-76
2021/04/21 07:56:49;;;;;;;9.10;5.38;;;;;;;19.28;32.57;97143.06;5087195;28;20042;-75
2021/04/21 07:59:27;;;;;;;7.53;5.13;;;;;;;19.40;32.22;97149.69;5124435;27;20035;-76
2021/04/21 08:01:53;;;;;;;5.97;4.55;;;;;;;19.77;31.76;97147.69;5101164;28;20040;-76
2021/04/21 08:04:25;;;;;;;8.85;5.00;;;;;;;19.60;32.07;97143.88;5108256;27;20031;-76
2021/04/21 08:06:56;;;;;;;5.97;4.70;;;;;;;19.80;32.23;97139.94;5118188;27;20878;-76
2021/04/21 08:09:23;;;;;;;6.80;4.60;;;;;;;20.34;31.75;97139.78;5088039;28;20498;-75
2021/04/21 08:12:12;;;;;;;9.63;6.40;;;;;;;19.78;31.77;97141.34;5109788;27;20386;-76
2021/04/21 08:15:02;;;;;;;7.28;5.45;;;;;;;20.14;31.95;97146.44;5098728;27;20052;-76
2021/04/21 08:17:28;;;;;;;8.05;5.15;;;;;;;20.45;31.84;97142.16;5131065;27;20069;-75
2021/04/21 08:19:57;;;;;;;6.88;5.05;;;;;;;20.57;30.58;97139.66;5118630;27;20066;-75
2021/04/21 08:22:24;;;;;;;7.68;4.95;;;;;;;20.32;31.99;97134.03;5111410;27;20411;-76
2021/04/21 08:24:50;;;;;;;6.75;4.97;;;;;;;21.25;32.00;97136.53;5083434;27;20040;-76
2021/04/21 08:27:17;;;;;;;6.30;4.72;;;;;;;21.54;32.39;97145.69;5108979;27;20019;-76
2021/04/21 08:29:44;;;;;;;8.70;5.43;;;;;;;21.61;31.21;97145.97;5094116;27;20023;-75
2021/04/21 08:32:16;;;;;;;7.72;5.00;;;;;;;22.33;27.70;97141.63;5074665;27;20034;-76
2021/04/21 08:34:41;;;;;;;9.73;5.82;;;;;;;22.59;27.11;97136.13;5108738;28;20023;-76
2021/04/21 08:37:08;;;;;;;7.85;6.05;;;;;;;22.69;26.86;97134.97;5090534;27;20027;-76
2021/04/21 08:39:33;;;;;;;6.63;4.78;;;;;;;22.95;26.98;97139.31;5095311;27;20108;-76
2021/04/21 08:42:00;;;;;;;7.32;4.75;;;;;;;22.89;28.24;97144.03;5116002;27;20539;-76
2021/04/21 08:44:30;;;;;;;6.88;4.93;;;;;;;22.95;27.54;97147.28;5117347;27;20023;-76
2021/04/21 08:46:58;;;;;;;7.47;4.95;;;;;;;22.92;28.32;97154.00;5117237;27;20030;-76
2021/04/21 08:49:24;;;;;;;6.70;5.10;;;;;;;23.04;28.11;97144.53;5117193;27;20038;-76
2021/04/21 08:51:50;;;;;;;7.90;5.38;;;;;;;23.40;25.93;97137.81;5088816;27;20104;-76
2021/04/21 08:54:17;;;;;;;7.15;5.57;;;;;;;23.36;26.14;97141.13;5095502;27;20051;-76
2021/04/21 08:56:43;;;;;;;8.35;5.53;;;;;;;23.51;25.55;97146.91;5098657;27;20035;-76
2021/04/21 08:59:09;;;;;;;8.07;5.30;;;;;;;23.87;24.84;97150.72;5132293;27;20387;-76
2021/04/21 09:01:38;;;;;;;6.95;5.35;;;;;;;24.00;23.78;97149.63;5112544;27;20027;-76
2021/04/21 09:04:03;;;;;;;9.85;7.03;;;;;;;24.06;23.95;97153.63;5106077;27;20032;-76
2021/04/21 09:06:29;;;;;;;9.25;7.32;;;;;;;24.09;23.57;97155.63;5115641;27;20039;-76
2021/04/21 09:08:57;;;;;;;12.82;9.48;;;;;;;24.18;24.20;97155.53;5081033;27;20043;-75
2021/04/21 09:11:23;;;;;;;11.32;8.52;;;;;;;24.42;23.18;97159.25;5105448;27;20420;-76
2021/04/21 09:13:49;;;;;;;10.88;7.40;;;;;;;23.41;25.30;97156.09;5066450;27;20442;-76
2021/04/21 09:16:17;;;;;;;10.27;7.45;;;;;;;24.04;23.64;97147.88;5108558;27;20027;-76
2021/04/21 09:18:43;;;;;;;7.57;6.38;;;;;;;23.29;25.26;97150.75;5078401;27;20207;-76
2021/04/21 09:21:23;;;;;;;8.80;5.93;;;;;;;23.11;26.53;97158.09;5105552;27;20355;-76
2021/04/21 09:23:49;;;;;;;5.93;5.30;;;;;;;24.01;23.21;97156.53;5085658;27;20482;-76
2021/04/21 09:26:19;;;;;;;6.50;5.38;;;;;;;23.81;25.07;97152.84;5089480;27;20496;-76
2021/04/21 09:28:51;;;;;;;7.85;5.50;;;;;;;23.83;25.04;97158.59;5131114;27;20027;-76
2021/04/21 09:31:19;;;;;;;6.20;4.45;;;;;;;23.72;25.66;97152.16;5078844;27;20066;-76
2021/04/21 09:33:46;;;;;;;7.05;5.07;;;;;;;23.47;25.63;97151.31;5108975;27;20046;-76
2021/04/21 09:36:12;;;;;;;6.55;5.35;;;;;;;22.83;25.09;97153.31;5096208;27;20386;-76
2021/04/21 09:38:37;;;;;;;10.63;5.18;;;;;;;23.55;25.15;97147.81;5092314;27;20020;-76
2021/04/21 09:41:14;;;;;;;7.18;5.53;;;;;;;24.27;22.51;97150.06;5101931;27;20039;-76
2021/04/21 09:43:41;;;;;;;6.13;5.28;;;;;;;24.34;24.25;97149.53;5108790;28;20032;-76
2021/04/21 09:46:18;;;;;;;7.93;6.10;;;;;;;24.35;22.61;97153.72;5103107;28;20304;-76
2021/04/21 09:48:45;;;;;;;7.25;5.97;;;;;;;24.64;23.13;97147.34;5106621;27;20448;-77
2021/04/21 09:51:19;;;;;;;5.68;4.60;;;;;;;24.26;22.80;97148.50;5078587;28;20027;-76
2021/04/21 09:53:46;;;;;;;6.68;5.40;;;;;;;24.31;23.53;97150.94;5095394;27;20112;-76
2021/04/21 09:56:14;;;;;;;4.47;3.47;;;;;;;23.23;23.44;97152.81;5088550;27;20062;-76
2021/04/21 09:58:41;;;;;;;4.78;3.88;;;;;;;24.03;22.30;97154.31;5123883;27;20117;-76
2021/04/21 10:01:29;;;;;;;3.50;3.20;;;;;;;23.80;23.23;97147.81;5064568;28;20070;-76
2021/04/21 10:04:19;;;;;;;7.20;4.60;;;;;;;24.17;21.61;97140.66;5137327;27;20042;-76
2021/04/21 10:06:58;;;;;;;6.53;4.57;;;;;;;23.40;22.75;97143.13;5112126;27;20023;-75
2021/04/21 10:09:38;;;;;;;6.07;4.93;;;;;;;24.42;23.25;97153.91;5061180;28;20497;-76
2021/04/21 10:12:26;;;;;;;5.32;4.70;;;;;;;24.97;20.58;97141.06;5078902;27;20360;-76
2021/04/21 10:15:10;;;;;;;4.78;4.15;;;;;;;25.22;22.35;97139.03;5090190;27;20374;-76
2021/04/21 10:17:40;;;;;;;4.85;4.32;;;;;;;25.35;21.92;97118.47;5107657;28;20036;-76
2021/04/21 10:20:11;;;;;;;4.15;3.40;;;;;;;24.88;21.25;97125.19;5069024;28;20032;-76
2021/04/21 10:22:38;;;;;;;4.95;4.10;;;;;;;24.53;21.44;97136.38;5092071;27;20389;-76
2021/04/21 10:25:05;;;;;;;5.55;4.57;;;;;;;24.42;22.33;97130.75;5072777;27;20038;-77
2021/04/21 10:27:30;;;;;;;5.28;4.30;;;;;;;24.99;22.62;97131.59;5084571;28;20028;-76
2021/04/21 10:29:56;;;;;;;5.78;4.60;;;;;;;24.46;21.62;97136.19;5087936;27;20037;-76
2021/04/21 10:32:21;;;;;;;5.70;4.40;;;;;;;25.16;21.37;97127.88;5088588;28;20040;-76
2021/04/21 10:34:48;;;;;;;5.82;4.78;;;;;;;24.57;22.11;97131.19;5070555;27;20076;-75
2021/04/21 10:37:15;;;;;;;5.45;4.40;;;;;;;24.76;22.60;97126.03;5112042;27;20031;-76
2021/04/21 10:39:42;;;;;;;5.18;4.68;;;;;;;25.17;20.87;97125.97;5105122;27;20092;-76
2021/04/21 10:42:09;;;;;;;5.47;4.40;;;;;;;25.54;22.11;97112.47;5101033;27;20027;-75
2021/04/21 10:44:36;;;;;;;5.10;4.60;;;;;;;25.58;20.73;97114.09;5123937;27;20023;-76
2021/04/21 10:47:04;;;;;;;4.43;3.95;;;;;;;25.42;22.82;97105.31;5081470;27;20106;-76
2021/04/21 10:49:35;;;;;;;6.28;3.67;;;;;;;25.80;20.75;97110.03;5100446;27;20549;-76
2021/04/21 10:52:18;;;;;;;5.10;4.28;;;;;;;24.82;22.64;97110.59;5112943;27;20442;-77
2021/04/21 10:54:52;;;;;;;4.45;4.00;;;;;;;24.68;22.87;97113.66;5101275;27;20031;-76
2021/04/21 10:57:21;;;;;;;4.22;3.83;;;;;;;24.78;23.34;97115.03;5082336;27;20454;-76
2021/04/21 11:00:21;;;;;;;4.72;3.92;;;;;;;24.46;23.52;97102.34;5100121;27;20039;-76
2021/04/21 11:02:48;;;;;;;3.97;3.35;;;;;;;25.73;22.79;97103.75;5098367;27;20019;-76
2021/04/21 11:05:21;;;;;;;5.05;4.30;;;;;;;24.34;22.04;97114.94;5084230;27;20038;-76
2021/04/21 11:08:03;;;;;;;4.68;3.97;;;;;;;24.00;22.50;97111.63;5100685;27;20042;-76
2021/04/21 11:10:34;;;;;;;4.38;3.53;;;;;;;24.48;21.62;97110.78;5099001;27;20076;-76
2021/04/21 11:13:00;;;;;;;4.03;3.63;;;;;;;24.60;22.45;97098.56;5074385;27;20055;-76
2021/04/21 11:15:45;;;;;;;3.50;3.10;;;;;;;24.53;21.67;97098.34;5092192;27;20035;-76
2021/04/21 11:18:11;;;;;;;3.85;3.45;;;;;;;24.96;22.08;97102.22;5063667;27;20105;-76
2021/04/21 11:20:46;;;;;;;3.70;3.40;;;;;;;24.54;21.85;97099.88;5091283;28;20062;-76
2021/04/21 11:23:53;;;;;;;4.25;3.35;;;;;;;24.58;20.67;97106.13;5120341;27;20103;-76
2021/04/21 11:29:15;;;;;;;4.90;3.50;;;;;;;23.95;20.81;97102.00;5113417;27;20554;-75
2021/04/21 11:31:41;;;;;;;3.28;2.88;;;;;;;24.08;21.50;97094.78;5086492;28;20427;-76
2021/04/21 11:34:12;;;;;;;3.60;3.00;;;;;;;23.37;23.04;97100.16;5094082;28;20129;-76
2021/04/21 11:37:06;;;;;;;3.50;3.20;;;;;;;23.15;22.44;97087.25;5125559;27;20031;-76
2021/04/21 11:42:28;;;;;;;3.03;2.58;;;;;;;22.77;24.00;97088.22;5109838;27;20054;-76
2021/04/21 11:45:12;;;;;;;4.68;4.22;;;;;;;22.03;25.99;97098.41;5092911;27;20038;-75
2021/04/21 11:47:42;;;;;;;6.70;5.25;;;;;;;21.24;27.72;97105.88;5108335;27;20023;-75
2021/04/21 11:50:10;;;;;;;5.88;5.28;;;;;;;21.81;27.27;97088.84;5085060;27;20042;-76
2021/04/21 11:52:58;;;;;;;6.63;5.85;;;;;;;21.81;28.46;97102.88;5104931;27;20031;-76
2021/04/21 11:55:25;;;;;;;6.18;4.85;;;;;;;21.81;27.57;97097.56;5081474;28;20428;-76
2021/04/21 11:57:56;;;;;;;5.82;5.28;;;;;;;21.55;28.71;97088.97;5119206;28;20471;-76
2021/04/21 12:00:31;;;;;;;5.78;5.20;;;;;;;21.24;29.11;97093.38;5086635;27;20549;-76
2021/04/21 12:02:57;;;;;;;7.15;5.03;;;;;;;21.68;29.48;97090.63;5097259;28;20378;-76
2021/04/21 12:05:28;;;;;;;7.35;5.80;;;;;;;21.25;29.21;97091.50;5115590;28;20034;-76
2021/04/21 12:07:56;;;;;;;7.88;6.22;;;;;;;21.00;30.01;97091.25;5102210;28;20047;-76